sensor_id;sensor_type;location;lat;lon;timestamp;pressure;altitude;pressure_sealevel;temperature;humidity
71791;BME280;59638;52.126;5.434;2022-09-09T00:00:47;100909.91;;;13.89;97.83
71791;BME280;59638;52.126;5.434;2022-09-09T00:03:23;100901.28;;;13.87;98.01
71791;BME280;59638;52.126;5.434;2022-09-09T00:06:17;100894.47;;;13.84;98.18
71791;BME280;59638;52.126;5.434;2022-09-09T00:11:24;100891.81;;;13.84;98.29
71791;BME280;59638;52.126;5.434;2022-09-09T00:13:58;100890.16;;;13.83;98.34
71791;BME280;59638;52.126;5.434;2022-09-09T00:16:28;100889.31;;;13.83;98.25
71791;BME280;59638;52.126;5.434;2022-09-09T00:21:37;100878.72;;;13.83;98.45
71791;BME280;59638;52.126;5.434;2022-09-09T00:24:28;100888.50;;;13.82;98.19
71791;BME280;59638;52.126;5.434;2022-09-09T00:27:04;100886.81;;;13.81;98.33
71791;BME280;59638;52.126;5.434;2022-09-09T00:29:37;100885.16;;;13.80;98.20
71791;BME280;59638;52.126;5.434;2022-09-09T00:32:16;100885.16;;;13.80;98.51
71791;BME280;59638;52.126;5.434;2022-09-09T00:34:48;100889.63;;;13.80;98.60
71791;BME280;59638;52.126;5.434;2022-09-09T00:37:16;100896.09;;;13.77;98.74
71791;BME280;59638;52.126;5.434;2022-09-09T00:39:45;100890.09;;;13.75;98.51
71791;BME280;59638;52.126;5.434;2022-09-09T00:42:25;100880.50;;;13.74;98.59
71791;BME280;59638;52.126;5.434;2022-09-09T00:45:02;100889.41;;;13.73;98.88
71791;BME280;59638;52.126;5.434;2022-09-09T00:47:49;100873.81;;;13.70;98.83
71791;BME280;59638;52.126;5.434;2022-09-09T00:50:45;100878.59;;;13.67;99.01
71791;BME280;59638;52.126;5.434;2022-09-09T00:56:11;100887.34;;;13.59;99.16
71791;BME280;59638;52.126;5.434;2022-09-09T00:58:38;100885.00;;;13.56;99.26
71791;BME280;59638;52.126;5.434;2022-09-09T01:01:08;100881.81;;;13.52;99.33
71791;BME280;59638;52.126;5.434;2022-09-09T01:03:42;100880.34;;;13.50;99.13
71791;BME280;59638;52.126;5.434;2022-09-09T01:17:19;100897.84;;;13.43;99.44
71791;BME280;59638;52.126;5.434;2022-09-09T01:19:57;100890.88;;;13.42;99.53
71791;BME280;59638;52.126;5.434;2022-09-09T01:22:44;100891.19;;;13.39;99.84
71791;BME280;59638;52.126;5.434;2022-09-09T01:25:29;100886.50;;;13.32;99.83
71791;BME280;59638;52.126;5.434;2022-09-09T01:28:01;100876.22;;;13.29;99.94
71791;BME280;59638;52.126;5.434;2022-09-09T01:30:30;100874.84;;;13.25;99.92
71791;BME280;59638;52.126;5.434;2022-09-09T01:32:59;100877.97;;;13.21;99.73
71791;BME280;59638;52.126;5.434;2022-09-09T01:38:03;100874.47;;;13.20;100.00
71791;BME280;59638;52.126;5.434;2022-09-09T01:40:30;100870.13;;;13.19;100.00
71791;BME280;59638;52.126;5.434;2022-09-09T01:42:56;100874.75;;;13.17;100.00
71791;BME280;59638;52.126;5.434;2022-09-09T01:45:23;100876.75;;;13.15;100.00
71791;BME280;59638;52.126;5.434;2022-09-09T01:47:52;100877.34;;;13.09;99.99
71791;BME280;59638;52.126;5.434;2022-09-09T01:50:20;100880.00;;;13.09;100.00
71791;BME280;59638;52.126;5.434;2022-09-09T01:52:50;100873.16;;;13.06;100.00
71791;BME280;59638;52.126;5.434;2022-09-09T01:55:20;100885.91;;;13.03;100.00
71791;BME280;59638;52.126;5.434;2022-09-09T01:58:17;100872.94;;;13.00;100.00
71791;BME280;59638;52.126;5.434;2022-09-09T02:00:47;100877.56;;;12.98;100.00
71791;BME280;59638;52.126;5.434;2022-09-09T02:03:23;100864.78;;;12.93;100.00
71791;BME280;59638;52.126;5.434;2022-09-09T02:06:44;100863.13;;;12.92;100.00
71791;BME280;59638;52.126;5.434;2022-09-09T02:08:59;100863.13;;;12.92;100.00
71791;BME280;59638;52.126;5.434;2022-09-09T02:11:28;100862.59;;;12.89;100.00
71791;BME280;59638;52.126;5.434;2022-09-09T02:14:16;100860.25;;;12.86;100.00
71791;BME280;59638;52.126;5.434;2022-09-09T02:16:48;100863.22;;;12.83;100.00
71791;BME280;59638;52.126;5.434;2022-09-09T02:19:21;100850.25;;;12.79;100.00
71791;BME280;59638;52.126;5.434;2022-09-09T02:21:55;100859.34;;;12.77;100.00
71791;BME280;59638;52.126;5.434;2022-09-09T02:24:22;100853.50;;;12.73;100.00
71791;BME280;59638;52.126;5.434;2022-09-09T02:26:51;100857.47;;;12.69;100.00
71791;BME280;59638;52.126;5.434;2022-09-09T02:29:25;100848.81;;;12.67;100.00
71791;BME280;59638;52.126;5.434;2022-09-09T02:31:52;100848.44;;;12.62;100.00
71791;BME280;59638;52.126;5.434;2022-09-09T02:34:22;100851.09;;;12.62;100.00
71791;BME280;59638;52.126;5.434;2022-09-09T02:36:52;100848.56;;;12.61;100.00
71791;BME280;59638;52.126;5.434;2022-09-09T02:39:19;100848.56;;;12.61;100.00
71791;BME280;59638;52.126;5.434;2022-09-09T02:41:46;100851.09;;;12.62;100.00
71791;BME280;59638;52.126;5.434;2022-09-09T02:44:15;100851.38;;;12.59;100.00
71791;BME280;59638;52.126;5.434;2022-09-09T02:47:16;100850.03;;;12.55;100.00
71791;BME280;59638;52.126;5.434;2022-09-09T02:50:12;100844.75;;;12.55;100.00
71791;BME280;59638;52.126;5.434;2022-09-09T02:55:41;100846.69;;;12.53;100.00
71791;BME280;59638;52.126;5.434;2022-09-09T02:58:13;100848.66;;;12.51;100.00
71791;BME280;59638;52.126;5.434;2022-09-09T03:00:48;100843.53;;;12.49;100.00
71791;BME280;59638;52.126;5.434;2022-09-09T03:03:16;100840.03;;;12.49;100.00
71791;BME280;59638;52.126;5.434;2022-09-09T03:05:44;100840.03;;;12.49;100.00
71791;BME280;59638;52.126;5.434;2022-09-09T03:08:10;100843.69;;;12.48;100.00
71791;BME280;59638;52.126;5.434;2022-09-09T03:10:37;100842.31;;;12.44;100.00
71791;BME280;59638;52.126;5.434;2022-09-09T03:13:04;100840.94;;;12.40;100.00
71791;BME280;59638;52.126;5.434;2022-09-09T03:15:33;100835.63;;;12.40;100.00
71791;BME280;59638;52.126;5.434;2022-09-09T03:18:00;100840.94;;;12.40;100.00
71791;BME280;59638;52.126;5.434;2022-09-09T03:20:28;100840.94;;;12.40;100.00
71791;BME280;59638;52.126;5.434;2022-09-09T03:22:56;100851.50;;;12.40;100.00
71791;BME280;59638;52.126;5.434;2022-09-09T03:25:23;100839.94;;;12.41;100.00
71791;BME280;59638;52.126;5.434;2022-09-09T03:27:50;100844.41;;;12.40;100.00
71791;BME280;59638;52.126;5.434;2022-09-09T03:30:21;100840.09;;;12.39;100.00
71791;BME280;59638;52.126;5.434;2022-09-09T03:32:47;100839.41;;;12.37;100.00
71791;BME280;59638;52.126;5.434;2022-09-09T03:35:14;100840.09;;;12.39;100.00
71791;BME280;59638;52.126;5.434;2022-09-09T03:37:41;100842.59;;;12.41;100.00
71791;BME280;59638;52.126;5.434;2022-09-09T03:40:09;100840.94;;;12.40;100.00
71791;BME280;59638;52.126;5.434;2022-09-09T03:42:37;100834.28;;;12.36;100.00
71791;BME280;59638;52.126;5.434;2022-09-09T03:45:04;100840.56;;;12.35;100.00
71791;BME280;59638;52.126;5.434;2022-09-09T03:47:31;100843.22;;;12.35;100.00
71791;BME280;59638;52.126;5.434;2022-09-09T03:49:57;100843.22;;;12.35;100.00
71791;BME280;59638;52.126;5.434;2022-09-09T03:52:24;100842.91;;;12.38;100.00
71791;BME280;59638;52.126;5.434;2022-09-09T03:54:53;100837.59;;;12.38;100.00
71791;BME280;59638;52.126;5.434;2022-09-09T03:57:20;100833.47;;;12.35;100.00
71791;BME280;59638;52.126;5.434;2022-09-09T03:59:47;100834.56;;;12.33;100.00
71791;BME280;59638;52.126;5.434;2022-09-09T04:02:14;100835.28;;;12.35;100.00
71791;BME280;59638;52.126;5.434;2022-09-09T04:04:41;100834.28;;;12.36;100.00
71791;BME280;59638;52.126;5.434;2022-09-09T04:07:08;100832.63;;;12.35;100.00
71791;BME280;59638;52.126;5.434;2022-09-09T04:09:34;100830.94;;;12.34;100.00
71791;BME280;59638;52.126;5.434;2022-09-09T04:12:01;100828.16;;;12.35;100.00
71791;BME280;59638;52.126;5.434;2022-09-09T04:14:28;100834.13;;;12.37;100.00
71791;BME280;59638;52.126;5.434;2022-09-09T04:16:55;100829.66;;;12.38;100.00
71791;BME280;59638;52.126;5.434;2022-09-09T04:19:24;100832.31;;;12.38;100.00
71791;BME280;59638;52.126;5.434;2022-09-09T04:21:50;100828.41;;;12.42;100.00
71791;BME280;59638;52.126;5.434;2022-09-09T04:24:17;100827.41;;;12.43;100.00
71791;BME280;59638;52.126;5.434;2022-09-09T04:26:44;100820.13;;;12.45;100.00
71791;BME280;59638;52.126;5.434;2022-09-09T04:29:11;100818.31;;;12.45;100.00
71791;BME280;59638;52.126;5.434;2022-09-09T04:31:37;100817.50;;;12.45;100.00
71791;BME280;59638;52.126;5.434;2022-09-09T04:34:11;100817.50;;;12.45;100.00
71791;BME280;59638;52.126;5.434;2022-09-09T04:36:37;100818.88;;;12.49;100.00
71791;BME280;59638;52.126;5.434;2022-09-09T04:39:05;100828.03;;;12.55;100.00
71791;BME280;59638;52.126;5.434;2022-09-09T04:41:31;100821.28;;;12.60;100.00
71791;BME280;59638;52.126;5.434;2022-09-09T04:43:58;100830.97;;;12.69;100.00
71791;BME280;59638;52.126;5.434;2022-09-09T04:46:25;100819.78;;;12.75;100.00
71791;BME280;59638;52.126;5.434;2022-09-09T04:48:51;100810.50;;;12.79;100.00
71791;BME280;59638;52.126;5.434;2022-09-09T04:51:18;100813.88;;;12.82;100.00
71791;BME280;59638;52.126;5.434;2022-09-09T04:53:45;100808.56;;;12.82;100.00
71791;BME280;59638;52.126;5.434;2022-09-09T04:56:15;100803.56;;;12.78;100.00
71791;BME280;59638;52.126;5.434;2022-09-09T04:58:42;100800.25;;;12.76;100.00
71791;BME280;59638;52.126;5.434;2022-09-09T05:01:14;100810.84;;;12.76;100.00
71791;BME280;59638;52.126;5.434;2022-09-09T05:03:41;100811.50;;;12.78;100.00
71791;BME280;59638;52.126;5.434;2022-09-09T05:06:10;100810.16;;;12.74;100.00
71791;BME280;59638;52.126;5.434;2022-09-09T05:08:38;100818.13;;;12.74;100.00
71791;BME280;59638;52.126;5.434;2022-09-09T05:11:28;100818.13;;;12.74;100.00
71791;BME280;59638;52.126;5.434;2022-09-09T05:13:54;100817.13;;;12.75;100.00
71791;BME280;59638;52.126;5.434;2022-09-09T05:16:23;100812.81;;;12.74;100.00
71791;BME280;59638;52.126;5.434;2022-09-09T05:18:49;100812.34;;;12.79;100.00
71791;BME280;59638;52.126;5.434;2022-09-09T05:21:18;100805.38;;;12.78;100.00
71791;BME280;59638;52.126;5.434;2022-09-09T05:23:45;100811.50;;;12.78;100.00
71791;BME280;59638;52.126;5.434;2022-09-09T05:26:15;100806.88;;;12.80;100.00
71791;BME280;59638;52.126;5.434;2022-09-09T05:28:43;100804.09;;;12.82;100.00
71791;BME280;59638;52.126;5.434;2022-09-09T05:31:11;100799.63;;;12.83;100.00
71791;BME280;59638;52.126;5.434;2022-09-09T05:33:40;100790.69;;;12.84;100.00
71791;BME280;59638;52.126;5.434;2022-09-09T05:36:09;100792.34;;;12.85;100.00
71791;BME280;59638;52.126;5.434;2022-09-09T05:38:36;100788.72;;;12.86;100.00
71791;BME280;59638;52.126;5.434;2022-09-09T05:41:04;100792.72;;;12.90;100.00
71791;BME280;59638;52.126;5.434;2022-09-09T05:43:31;100803.00;;;12.93;100.00
71791;BME280;59638;52.126;5.434;2022-09-09T05:46:09;100803.38;;;12.98;100.00
71791;BME280;59638;52.126;5.434;2022-09-09T05:48:38;100801.09;;;13.03;100.00
71791;BME280;59638;52.126;5.434;2022-09-09T05:51:06;100800.78;;;13.06;100.00
71791;BME280;59638;52.126;5.434;2022-09-09T05:53:33;100801.31;;;13.10;100.00
71791;BME280;59638;52.126;5.434;2022-09-09T05:56:08;100795.56;;;13.14;100.00
71791;BME280;59638;52.126;5.434;2022-09-09T05:58:38;100795.91;;;13.19;100.00
71791;BME280;59638;52.126;5.434;2022-09-09T06:01:09;100799.78;;;13.25;100.00
71791;BME280;59638;52.126;5.434;2022-09-09T06:03:38;100802.66;;;13.31;100.00
71791;BME280;59638;52.126;5.434;2022-09-09T06:06:07;100816.94;;;13.39;100.00
71791;BME280;59638;52.126;5.434;2022-09-09T06:08:35;100814.66;;;13.44;100.00
71791;BME280;59638;52.126;5.434;2022-09-09T06:11:07;100810.91;;;13.54;100.00
71791;BME280;59638;52.126;5.434;2022-09-09T06:13:34;100816.09;;;13.64;100.00
71791;BME280;59638;52.126;5.434;2022-09-09T06:16:03;100811.19;;;13.77;100.00
71791;BME280;59638;52.126;5.434;2022-09-09T06:18:30;100811.75;;;13.97;100.00
71791;BME280;59638;52.126;5.434;2022-09-09T06:21:01;100808.66;;;14.18;100.00
71791;BME280;59638;52.126;5.434;2022-09-09T06:23:28;100812.03;;;14.36;100.00
71791;BME280;59638;52.126;5.434;2022-09-09T06:26:05;100801.16;;;14.56;100.00
71791;BME280;59638;52.126;5.434;2022-09-09T06:28:33;100810.78;;;14.65;100.00
71791;BME280;59638;52.126;5.434;2022-09-09T06:31:01;100798.50;;;14.64;100.00
71791;BME280;59638;52.126;5.434;2022-09-09T06:33:37;100805.47;;;14.65;100.00
71791;BME280;59638;52.126;5.434;2022-09-09T06:36:11;100799.97;;;14.91;100.00
71791;BME280;59638;52.126;5.434;2022-09-09T06:38:37;100790.81;;;15.18;99.96
71791;BME280;59638;52.126;5.434;2022-09-09T06:41:04;100789.09;;;15.49;99.65
71791;BME280;59638;52.126;5.434;2022-09-09T06:43:32;100781.66;;;15.84;98.41
71791;BME280;59638;52.126;5.434;2022-09-09T06:46:10;100793.38;;;16.06;97.85
71791;BME280;59638;52.126;5.434;2022-09-09T06:48:38;100786.69;;;16.10;96.68
71791;BME280;59638;52.126;5.434;2022-09-09T06:51:16;100782.81;;;16.44;97.04
71791;BME280;59638;52.126;5.434;2022-09-09T06:53:45;100797.28;;;16.49;96.44
71791;BME280;59638;52.126;5.434;2022-09-09T06:56:25;100783.66;;;16.67;94.67
71791;BME280;59638;52.126;5.434;2022-09-09T06:58:55;100787.81;;;16.47;96.10
71791;BME280;59638;52.126;5.434;2022-09-09T07:01:24;100789.22;;;16.35;95.01
71791;BME280;59638;52.126;5.434;2022-09-09T07:03:53;100789.75;;;16.30;93.03
71791;BME280;59638;52.126;5.434;2022-09-09T07:06:23;100788.84;;;16.15;94.28
71791;BME280;59638;52.126;5.434;2022-09-09T07:08:54;100788.25;;;16.04;94.95
71791;BME280;59638;52.126;5.434;2022-09-09T07:11:24;100784.06;;;16.56;94.57
71791;BME280;59638;52.126;5.434;2022-09-09T07:13:52;100779.94;;;16.76;93.43
71791;BME280;59638;52.126;5.434;2022-09-09T07:16:19;100795.38;;;17.04;92.60
71791;BME280;59638;52.126;5.434;2022-09-09T07:18:46;100793.09;;;17.16;91.97
71791;BME280;59638;52.126;5.434;2022-09-09T07:21:13;100787.91;;;16.99;91.85
71791;BME280;59638;52.126;5.434;2022-09-09T07:23:41;100791.44;;;16.77;91.91
71791;BME280;59638;52.126;5.434;2022-09-09T07:26:12;100790.28;;;16.48;92.95
71791;BME280;59638;52.126;5.434;2022-09-09T07:28:40;100787.44;;;16.27;92.58
71791;BME280;59638;52.126;5.434;2022-09-09T07:31:13;100784.84;;;16.19;92.48
71791;BME280;59638;52.126;5.434;2022-09-09T07:33:42;100797.22;;;16.03;93.74
71791;BME280;59638;52.126;5.434;2022-09-09T07:36:17;100800.28;;;15.92;93.22
71791;BME280;59638;52.126;5.434;2022-09-09T07:38:46;100812.91;;;15.90;93.13
71791;BME280;59638;52.126;5.434;2022-09-09T07:41:19;100803.72;;;16.01;93.35
71791;BME280;59638;52.126;5.434;2022-09-09T07:43:47;100800.50;;;16.14;93.78
71791;BME280;59638;52.126;5.434;2022-09-09T07:46:16;100794.38;;;16.36;92.99
71791;BME280;59638;52.126;5.434;2022-09-09T07:48:45;100793.31;;;16.91;91.76
71791;BME280;59638;52.126;5.434;2022-09-09T07:51:15;100795.59;;;17.17;90.89
71791;BME280;59638;52.126;5.434;2022-09-09T07:53:44;100786.88;;;17.53;89.90
71791;BME280;59638;52.126;5.434;2022-09-09T07:56:13;100789.13;;;18.00;88.85
71791;BME280;59638;52.126;5.434;2022-09-09T07:58:40;100779.66;;;19.33;88.66
71791;BME280;59638;52.126;5.434;2022-09-09T08:01:14;100777.91;;;19.46;82.20
71791;BME280;59638;52.126;5.434;2022-09-09T08:03:42;100792.16;;;18.69;84.41
71791;BME280;59638;52.126;5.434;2022-09-09T08:06:09;100792.84;;;17.70;84.11
71791;BME280;59638;52.126;5.434;2022-09-09T08:08:36;100797.06;;;17.20;86.92
71791;BME280;59638;52.126;5.434;2022-09-09T08:11:14;100798.41;;;17.16;87.46
71791;BME280;59638;52.126;5.434;2022-09-09T08:13:42;100803.19;;;17.05;87.95
71791;BME280;59638;52.126;5.434;2022-09-09T08:16:15;100804.75;;;17.00;88.68
71791;BME280;59638;52.126;5.434;2022-09-09T08:18:41;100800.16;;;17.08;87.91
71791;BME280;59638;52.126;5.434;2022-09-09T08:21:13;100803.53;;;17.02;87.65
71791;BME280;59638;52.126;5.434;2022-09-09T08:23:41;100803.69;;;16.86;88.13
71791;BME280;59638;52.126;5.434;2022-09-09T08:28:37;100817.09;;;16.78;87.44
71791;BME280;59638;52.126;5.434;2022-09-09T08:31:08;100818.81;;;16.63;88.40
71791;BME280;59638;52.126;5.434;2022-09-09T08:33:35;100818.72;;;16.56;87.93
71791;BME280;59638;52.126;5.434;2022-09-09T08:36:05;100819.97;;;16.45;88.66
71791;BME280;59638;52.126;5.434;2022-09-09T08:38:32;100816.34;;;16.38;88.73
71791;BME280;59638;52.126;5.434;2022-09-09T08:44:09;100820.22;;;16.27;87.82
71791;BME280;59638;52.126;5.434;2022-09-09T08:47:10;100816.69;;;16.35;88.37
71791;BME280;59638;52.126;5.434;2022-09-09T08:49:52;100825.94;;;16.47;87.81
71791;BME280;59638;52.126;5.434;2022-09-09T08:52:38;100827.59;;;16.48;87.51
71791;BME280;59638;52.126;5.434;2022-09-09T08:55:37;100823.56;;;16.52;88.05
71791;BME280;59638;52.126;5.434;2022-09-09T08:58:17;100817.88;;;16.55;87.67
71791;BME280;59638;52.126;5.434;2022-09-09T09:03:34;100831.78;;;16.74;86.90
71791;BME280;59638;52.126;5.434;2022-09-09T09:08:59;100828.19;;;16.58;87.12
71791;BME280;59638;52.126;5.434;2022-09-09T09:11:27;100829.78;;;16.68;86.81
71791;BME280;59638;52.126;5.434;2022-09-09T09:14:18;100836.13;;;16.67;86.72
71791;BME280;59638;52.126;5.434;2022-09-09T09:16:58;100834.19;;;16.61;86.36
71791;BME280;59638;52.126;5.434;2022-09-09T09:19:26;100826.88;;;16.54;86.93
71791;BME280;59638;52.126;5.434;2022-09-09T09:22:13;100833.56;;;16.50;86.95
71791;BME280;59638;52.126;5.434;2022-09-09T09:24:54;100834.94;;;16.46;87.07
71791;BME280;59638;52.126;5.434;2022-09-09T09:27:28;100839.25;;;16.47;86.86
71791;BME280;59638;52.126;5.434;2022-09-09T09:29:58;100846.19;;;16.56;87.37
71791;BME280;59638;52.126;5.434;2022-09-09T09:32:54;100832.00;;;16.64;86.44
71791;BME280;59638;52.126;5.434;2022-09-09T09:35:22;100849.66;;;16.65;86.65
71791;BME280;59638;52.126;5.434;2022-09-09T09:37:48;100837.78;;;16.68;85.99
71791;BME280;59638;52.126;5.434;2022-09-09T09:40:34;100836.75;;;16.77;86.01
71791;BME280;59638;52.126;5.434;2022-09-09T09:43:01;100832.72;;;16.81;86.22
71791;BME280;59638;52.126;5.434;2022-09-09T09:45:40;100835.38;;;16.81;85.37
71791;BME280;59638;52.126;5.434;2022-09-09T09:48:20;100833.75;;;16.80;85.55
71791;BME280;59638;52.126;5.434;2022-09-09T09:53:29;100841.03;;;16.86;85.37
71791;BME280;59638;52.126;5.434;2022-09-09T09:55:58;100838.28;;;16.94;85.13
71791;BME280;59638;52.126;5.434;2022-09-09T09:58:27;100835.09;;;16.99;84.25
71791;BME280;59638;52.126;5.434;2022-09-09T10:00:57;100839.47;;;16.92;84.58
71791;BME280;59638;52.126;5.434;2022-09-09T10:03:35;100832.00;;;16.87;84.80
71791;BME280;59638;52.126;5.434;2022-09-09T10:06:06;100835.31;;;16.89;84.96
71791;BME280;59638;52.126;5.434;2022-09-09T10:08:34;100832.66;;;16.89;84.95
71791;BME280;59638;52.126;5.434;2022-09-09T10:16:29;100832.84;;;16.88;84.60
71791;BME280;59638;52.126;5.434;2022-09-09T10:19:01;100832.38;;;16.84;84.72
71791;BME280;59638;52.126;5.434;2022-09-09T10:24:36;100834.88;;;16.85;84.87
71791;BME280;59638;52.126;5.434;2022-09-09T10:29:50;100830.28;;;16.94;84.36
71791;BME280;59638;52.126;5.434;2022-09-09T10:38:10;100844.16;;;16.90;84.73
71791;BME280;59638;52.126;5.434;2022-09-09T10:44:00;100847.13;;;16.72;85.76
71791;BME280;59638;52.126;5.434;2022-09-09T10:57:37;100848.59;;;16.74;89.18
71791;BME280;59638;52.126;5.434;2022-09-09T11:00:14;100847.03;;;17.03;88.27
71791;BME280;59638;52.126;5.434;2022-09-09T11:02:41;100843.03;;;17.22;88.00
71791;BME280;59638;52.126;5.434;2022-09-09T11:05:18;100843.94;;;17.66;86.90
71791;BME280;59638;52.126;5.434;2022-09-09T11:07:59;100837.47;;;18.56;85.18
71791;BME280;59638;52.126;5.434;2022-09-09T11:10:49;100841.28;;;19.39;82.59
71791;BME280;59638;52.126;5.434;2022-09-09T11:13:30;100827.56;;;19.83;80.27
71791;BME280;59638;52.126;5.434;2022-09-09T11:16:16;100824.59;;;19.65;80.82
71791;BME280;59638;52.126;5.434;2022-09-09T11:18:46;100826.81;;;19.34;81.43
71791;BME280;59638;52.126;5.434;2022-09-09T11:21:25;100817.16;;;19.67;80.20
71791;BME280;59638;52.126;5.434;2022-09-09T11:24:00;100832.34;;;19.25;80.91
71791;BME280;59638;52.126;5.434;2022-09-09T11:26:31;100824.59;;;18.45;82.78
71791;BME280;59638;52.126;5.434;2022-09-09T11:29:26;100817.59;;;17.93;84.40
71791;BME280;59638;52.126;5.434;2022-09-09T11:34:46;100819.47;;;17.78;84.92
71791;BME280;59638;52.126;5.434;2022-09-09T11:37:36;100811.63;;;17.91;84.51
71791;BME280;59638;52.126;5.434;2022-09-09T11:40:14;100826.06;;;18.11;83.47
71791;BME280;59638;52.126;5.434;2022-09-09T11:42:42;100809.13;;;18.04;82.83
71791;BME280;59638;52.126;5.434;2022-09-09T11:45:22;100809.72;;;17.85;83.29
71791;BME280;59638;52.126;5.434;2022-09-09T11:47:54;100810.97;;;17.89;83.83
71791;BME280;59638;52.126;5.434;2022-09-09T11:52:48;100812.03;;;18.24;81.79
71791;BME280;59638;52.126;5.434;2022-09-09T11:55:31;100805.19;;;17.85;82.79
71791;BME280;59638;52.126;5.434;2022-09-09T12:03:36;100826.94;;;17.15;86.19
71791;BME280;59638;52.126;5.434;2022-09-09T12:06:19;100812.22;;;17.04;87.18
71791;BME280;59638;52.126;5.434;2022-09-09T12:08:58;100810.31;;;16.90;87.49
71791;BME280;59638;52.126;5.434;2022-09-09T12:11:31;100831.25;;;16.78;87.87
71791;BME280;59638;52.126;5.434;2022-09-09T12:14:00;100822.38;;;16.55;88.68
71791;BME280;59638;52.126;5.434;2022-09-09T12:16:32;100826.31;;;16.44;89.47
71791;BME280;59638;52.126;5.434;2022-09-09T12:19:25;100830.19;;;16.34;89.80
71791;BME280;59638;52.126;5.434;2022-09-09T12:22:06;100827.34;;;16.35;89.63
71791;BME280;59638;52.126;5.434;2022-09-09T12:24:47;100834.03;;;16.31;90.06
71791;BME280;59638;52.126;5.434;2022-09-09T12:27:32;100817.81;;;16.18;90.73
71791;BME280;59638;52.126;5.434;2022-09-09T12:30:10;100821.41;;;16.25;91.18
71791;BME280;59638;52.126;5.434;2022-09-09T12:32:38;100818.34;;;16.36;91.41
71791;BME280;59638;52.126;5.434;2022-09-09T12:35:27;100813.03;;;16.59;90.55
71791;BME280;59638;52.126;5.434;2022-09-09T12:38:00;100819.81;;;16.70;91.11
71791;BME280;59638;52.126;5.434;2022-09-09T12:40:30;100822.28;;;16.94;90.36
71791;BME280;59638;52.126;5.434;2022-09-09T12:42:58;100816.16;;;17.08;90.60
71791;BME280;59638;52.126;5.434;2022-09-09T12:45:31;100817.28;;;17.29;90.39
71791;BME280;59638;52.126;5.434;2022-09-09T12:48:01;100811.06;;;17.51;88.83
71791;BME280;59638;52.126;5.434;2022-09-09T12:50:32;100810.50;;;17.41;88.17
71791;BME280;59638;52.126;5.434;2022-09-09T12:53:02;100811.31;;;17.27;89.42
71791;BME280;59638;52.126;5.434;2022-09-09T12:55:36;100805.41;;;17.17;89.58
71791;BME280;59638;52.126;5.434;2022-09-09T12:58:04;100814.06;;;17.19;89.27
71791;BME280;59638;52.126;5.434;2022-09-09T13:00:33;100806.28;;;17.32;89.15
71791;BME280;59638;52.126;5.434;2022-09-09T13:03:03;100800.09;;;17.46;89.11
71791;BME280;59638;52.126;5.434;2022-09-09T13:05:40;100801.41;;;17.80;88.67
71791;BME280;59638;52.126;5.434;2022-09-09T13:08:10;100808.97;;;18.27;86.95
71791;BME280;59638;52.126;5.434;2022-09-09T13:10:40;100816.72;;;18.80;85.60
71791;BME280;59638;52.126;5.434;2022-09-09T13:13:39;100804.50;;;18.92;85.04
71791;BME280;59638;52.126;5.434;2022-09-09T13:16:15;100814.72;;;19.10;83.42
71791;BME280;59638;52.126;5.434;2022-09-09T13:18:44;100808.81;;;18.93;83.65
71791;BME280;59638;52.126;5.434;2022-09-09T13:21:10;100808.81;;;18.50;84.95
71791;BME280;59638;52.126;5.434;2022-09-09T13:23:37;100810.53;;;18.21;86.41
71791;BME280;59638;52.126;5.434;2022-09-09T13:26:25;100809.22;;;18.11;85.09
71791;BME280;59638;52.126;5.434;2022-09-09T13:28:53;100804.38;;;17.85;86.08
71791;BME280;59638;52.126;5.434;2022-09-09T13:31:22;100810.97;;;17.89;86.22
71791;BME280;59638;52.126;5.434;2022-09-09T13:33:50;100794.56;;;18.07;85.98
71791;BME280;59638;52.126;5.434;2022-09-09T13:36:27;100803.56;;;18.20;84.68
71791;BME280;59638;52.126;5.434;2022-09-09T13:38:56;100800.09;;;18.05;85.52
71791;BME280;59638;52.126;5.434;2022-09-09T13:41:42;100803.88;;;18.11;84.89
71791;BME280;59638;52.126;5.434;2022-09-09T13:44:29;100792.84;;;17.84;86.50
71791;BME280;59638;52.126;5.434;2022-09-09T13:47:02;100794.03;;;17.82;85.54
71791;BME280;59638;52.126;5.434;2022-09-09T13:49:35;100783.00;;;17.85;86.42
71791;BME280;59638;52.126;5.434;2022-09-09T13:52:10;100793.47;;;18.01;85.53
71791;BME280;59638;52.126;5.434;2022-09-09T13:54:37;100789.41;;;18.05;85.13
71791;BME280;59638;52.126;5.434;2022-09-09T13:57:04;100789.84;;;18.09;85.51
71791;BME280;59638;52.126;5.434;2022-09-09T13:59:30;100801.19;;;18.11;84.79
71791;BME280;59638;52.126;5.434;2022-09-09T14:02:18;100793.94;;;18.05;85.66
71791;BME280;59638;52.126;5.434;2022-09-09T14:04:44;100796.13;;;18.01;85.42
71791;BME280;59638;52.126;5.434;2022-09-09T14:07:12;100795.50;;;17.99;85.06
71791;BME280;59638;52.126;5.434;2022-09-09T14:09:40;100786.47;;;18.00;84.73
71791;BME280;59638;52.126;5.434;2022-09-09T14:12:10;100793.53;;;18.08;85.11
71791;BME280;59638;52.126;5.434;2022-09-09T14:14:38;100789.78;;;18.02;84.79
71791;BME280;59638;52.126;5.434;2022-09-09T14:17:04;100790.78;;;18.01;84.46
71791;BME280;59638;52.126;5.434;2022-09-09T14:19:33;100785.34;;;18.09;84.20
71791;BME280;59638;52.126;5.434;2022-09-09T14:22:00;100784.22;;;18.18;84.25
71791;BME280;59638;52.126;5.434;2022-09-09T14:24:27;100784.09;;;18.27;83.80
71791;BME280;59638;52.126;5.434;2022-09-09T14:26:54;100792.09;;;18.27;84.52
71791;BME280;59638;52.126;5.434;2022-09-09T14:29:21;100784.72;;;18.29;84.87
71791;BME280;59638;52.126;5.434;2022-09-09T14:31:47;100778.47;;;18.21;84.75